Date,TemperatureHighF,TemperatureAvgF,TemperatureLowF,DewpointHighF,DewpointAvgF,DewpointLowF,HumidityHigh,HumidityAvg,HumidityLow,PressureMaxIn,PressureMinIn,WindSpeedMaxMPH,WindSpeedAvgMPH,GustSpeedMaxMPH,PrecipitationSumIn
2013-1-1,55.5,47.3,39.1,55.0,44.8,35.0,98,91,80,30.24,29.95,13,5,17,0.06
2013-1-2,42.9,38.0,33.7,35.0,30.8,29.0,86,76,62,30.34,30.24,10,4,16,0.00
2013-1-3,44.6,39.3,32.5,33.0,31.1,30.0,90,73,60,30.46,30.33,8,4,13,0.00
2013-1-4,43.3,39.6,35.9,39.0,36.9,31.0,96,90,63,30.53,30.39,8,2,13,0.21
2013-1-5,55.5,44.6,39.6,44.0,40.5,38.0,96,86,65,30.39,30.23,5,2,9,0.01
2013-1-6,58.9,46.3,36.1,40.0,34.9,31.0,95,68,36,30.40,30.28,11,4,14,0.01
2013-1-7,54.8,46.8,38.1,42.0,35.2,30.0,75,65,51,30.32,30.06,6,2,11,0.00
2013-1-8,52.1,49.2,46.2,52.0,48.1,42.0,98,96,77,30.06,29.87,10,2,16,0.48
2013-1-9,58.6,55.5,51.0,57.0,54.7,51.0,98,97,93,29.99,29.81,15,4,23,0.85
2013-1-10,65.6,55.0,47.6,53.0,47.3,45.0,98,77,51,30.03,29.95,15,2,21,0.01
2013-1-11,73.2,61.0,47.4,65.0,55.2,43.0,97,82,60,30.00,29.80,12,3,21,0.00
2013-1-12,72.5,65.5,46.7,68.0,61.9,37.0,98,88,63,29.85,29.62,13,4,24,0.02
2013-1-13,51.0,43.4,37.2,36.0,30.7,26.0,76,62,48,30.18,29.85,15,8,22,0.00
2013-1-14,50.2,40.2,33.8,32.0,28.4,24.0,73,63,48,30.25,30.10,16,6,16,0.00
2013-1-15,40.8,36.1,34.1,34.0,32.5,26.0,95,87,68,30.25,30.10,13,6,19,0.06
2013-1-16,52.2,40.7,29.3,26.0,21.4,15.0,74,49,25,30.36,30.20,12,4,17,0.00
2013-1-17,64.2,50.8,38.7,38.0,31.5,19.0,69,49,32,30.48,30.30,11,4,14,0.00
2013-1-18,63.4,51.9,41.8,37.0,34.1,33.0,72,53,32,30.50,30.31,7,2,13,0.00
2013-1-19,67.0,53.1,41.7,48.0,42.9,36.0,96,71,46,30.31,30.14,9,1,13,0.00
2013-1-20,72.8,60.0,49.3,53.0,47.9,43.0,90,67,37,30.22,30.07,8,2,12,0.00
2013-1-21,72.6,59.7,52.3,53.0,48.5,42.0,86,68,48,30.22,30.10,6,2,9,0.00
2013-1-22,71.0,57.8,46.0,53.0,46.1,39.0,83,66,51,30.29,30.18,8,2,14,0.00
2013-1-23,73.4,59.7,49.2,58.0,53.6,48.0,97,81,57,30.32,30.18,7,2,17,0.00
2013-1-24,77.0,67.3,59.7,63.0,60.4,58.0,94,80,57,30.22,30.07,12,3,15,0.00
2013-1-25,78.3,66.8,55.2,63.0,59.6,50.0,94,79,57,30.12,29.99,11,3,18,0.00
2013-1-26,65.9,56.1,50.8,59.0,53.2,48.0,96,90,77,30.16,30.04,5,2,9,0.01
2013-1-27,76.9,66.3,58.0,66.0,62.3,57.0,98,87,67,30.08,29.92,14,5,20,0.00
2013-1-28,75.3,70.3,67.1,67.0,65.9,65.0,94,86,73,29.99,29.83,22,6,25,0.00
2013-1-29,81.4,69.4,56.4,67.0,57.2,25.0,93,69,29,29.83,29.47,18,6,29,0.00
2013-1-30,57.7,51.9,45.6,30.0,20.8,15.0,55,30,20,30.21,29.77,24,7,28,0.00
2013-1-31,68.3,54.8,43.6,30.0,22.8,17.0,42,30,17,30.28,30.16,10,1,15,0.00
2013-2-1,70.1,57.5,46.8,44.0,37.1,32.0,69,48,30,30.33,30.15,10,2,18,0.00
2013-2-2,77.2,61.4,46.8,56.0,47.7,41.0,89,63,36,30.27,30.14,10,2,11,0.00
2013-2-3,70.5,60.4,50.3,48.0,38.4,28.0,71,46,22,30.31,30.01,12,3,16,0.00
2013-2-4,74.2,63.3,56.7,61.0,56.4,49.0,95,79,58,30.00,29.78,11,2,17,0.00
2013-2-5,79.0,65.6,53.7,59.0,48.8,41.0,92,59,27,29.95,29.83,10,2,13,0.00
2013-2-6,74.1,64.0,59.1,61.0,57.7,51.0,95,81,57,29.96,29.80,11,3,14,0.02
2013-2-7,83.2,67.2,57.5,63.0,54.0,40.0,96,68,30,30.05,29.81,16,4,21,0.00
2013-2-8,69.7,58.5,48.1,46.0,35.2,25.0,72,46,20,30.20,30.05,11,4,16,0.00
2013-2-9,67.4,57.7,52.2,66.0,55.0,36.0,98,91,48,30.08,29.75,13,5,22,0.02
2013-2-10,67.8,61.6,54.8,67.0,45.7,31.0,97,61,28,29.99,29.70,16,4,23,0.07
2013-2-11,58.8,54.1,49.9,49.0,45.6,37.0,95,74,46,30.07,29.95,7,1,11,0.08
2013-2-12,69.8,57.4,49.5,56.0,46.4,26.0,97,73,24,30.04,29.80,13,4,18,0.02
2013-2-13,62.5,49.8,39.1,39.0,34.7,29.0,83,59,29,30.13,30.02,16,5,19,0.02
2013-2-14,70.5,55.8,44.7,42.0,36.9,33.0,77,53,26,30.11,29.98,7,1,14,0.00
2013-2-15,60.7,51.2,42.8,41.0,36.8,26.0,78,59,44,30.38,30.06,13,4,19,0.00
2013-2-16,65.9,50.8,37.5,32.0,27.2,23.0,61,42,24,30.44,30.20,9,3,13,0.00
2013-2-17,69.4,57.0,40.6,52.0,37.8,29.0,75,50,30,30.20,29.95,20,4,23,0.00
2013-2-18,80.7,67.0,57.6,61.0,47.9,27.0,86,57,17,30.05,29.80,15,5,22,0.00
2013-2-19,67.2,57.5,46.8,34.0,30.8,22.0,58,38,18,30.24,30.05,11,3,16,0.00
2013-2-20,64.0,56.0,52.1,64.0,47.7,32.0,98,76,42,30.10,29.63,17,5,23,0.04
2013-2-21,76.7,67.5,58.5,66.0,41.7,17.0,98,50,11,29.83,29.54,16,6,27,0.00
2013-2-22,58.9,50.7,42.9,40.0,33.7,27.0,78,54,30,30.04,29.83,11,4,16,0.00
2013-2-23,70.4,53.3,39.8,38.0,33.3,29.0,69,49,27,30.06,29.87,8,3,15,0.00
2013-2-24,72.1,58.9,46.3,58.0,47.1,36.0,94,66,47,29.91,29.58,14,5,21,0.00
2013-2-25,62.2,55.4,46.2,59.0,37.0,20.0,97,55,20,29.80,29.52,28,11,42,0.01
2013-2-26,68.0,52.3,40.2,31.0,29.3,27.0,64,44,23,29.95,29.81,16,5,27,0.00
2013-2-27,62.5,54.0,46.0,35.0,28.3,21.0,55,38,22,30.21,29.85,18,5,21,0.00
2013-2-28,61.1,30.8,41.1,30.0,-17.3,-99.9,62,31,24,30.32,30.18,11,4,18,0.15
2013-3-1,-200.0,0.0,200.0,-99.9,-99.9,-99.9,0,0,100,30.28,30.09,11,3,17,0.00
2013-3-2,-200.0,0.0,200.0,-99.9,-99.9,-99.9,0,0,100,30.40,30.24,14,4,19,0.00
2013-3-3,-200.0,0.0,200.0,-99.9,-99.9,-99.9,0,0,100,30.24,29.89,15,4,23,0.00
2013-3-4,-200.0,0.0,200.0,-99.9,-99.9,-99.9,0,0,100,29.89,29.68,16,4,23,0.00
2013-3-5,-200.0,0.0,200.0,-99.9,-99.9,-99.9,0,0,100,30.34,29.75,19,7,28,0.00
2013-3-6,-200.0,0.0,200.0,-99.9,-99.9,-99.9,0,0,100,30.42,30.19,9,3,12,0.00
2013-3-7,-200.0,0.0,200.0,-99.9,-99.9,-99.9,0,0,100,30.22,30.06,14,4,23,0.00
2013-3-8,-200.0,0.0,200.0,-99.9,-99.9,-99.9,0,0,100,30.12,29.98,15,4,18,0.19
2013-3-9,-200.0,0.0,200.0,-99.9,-99.9,-99.9,0,0,100,29.99,29.64,18,7,27,0.02
2013-3-10,-200.0,0.0,200.0,-99.9,-99.9,-99.9,0,0,100,30.11,29.71,16,6,22,0.01
2013-3-11,66.5,31.7,53.3,30.0,-35.1,-99.9,39,13,19,30.16,29.98,10,4,16,0.00
2013-3-12,78.4,61.4,46.2,42.0,32.2,26.0,54,35,18,30.22,30.04,11,2,19,0.00
2013-3-13,75.0,62.1,50.8,42.0,36.7,32.0,61,41,25,30.41,30.23,11,1,15,0.00
2013-3-14,76.7,63.9,52.4,54.0,47.3,42.0,86,58,32,30.36,30.19,14,3,18,0.00
2013-3-15,79.3,65.1,54.2,56.0,49.6,41.0,93,63,26,30.22,29.96,14,3,21,0.00
2013-3-16,82.5,68.3,57.5,62.0,56.7,53.0,92,70,36,29.97,29.70,17,5,23,0.00
2013-3-17,82.3,70.9,64.0,64.0,61.2,59.0,91,73,48,29.77,29.61,17,4,24,0.00
2013-3-18,87.8,73.5,63.6,66.0,54.8,43.0,94,60,22,29.91,29.67,11,4,15,0.00
2013-3-19,81.9,66.3,54.2,64.0,53.4,45.0,74,64,46,29.97,29.81,10,2,16,0.03
2013-3-20,72.4,61.6,52.3,55.0,45.9,36.0,95,61,30,30.21,29.97,19,4,25,0.09
2013-3-21,73.9,63.2,51.8,60.0,51.7,39.0,84,67,45,30.00,29.57,13,4,23,0.00
2013-3-22,84.5,70.4,56.8,66.0,61.7,49.0,97,76,49,29.73,29.60,8,3,19,0.00
2013-3-23,80.0,61.6,51.4,61.0,53.1,47.0,90,75,51,29.76,29.57,9,3,12,0.00
2013-3-24,61.5,52.2,42.8,58.0,32.6,22.0,92,51,27,30.15,29.67,17,7,28,0.00
2013-3-25,59.8,48.7,36.4,27.0,21.5,16.0,59,37,19,30.38,30.15,8,3,14,0.00
2013-3-26,65.6,51.2,39.7,25.0,20.9,19.0,52,32,17,30.48,30.28,8,1,12,0.00
2013-3-27,67.6,55.5,41.7,48.0,37.8,23.0,73,53,37,30.31,30.14,11,3,21,0.00
2013-3-28,72.0,62.2,53.5,59.0,55.1,48.0,89,78,63,30.18,30.09,17,4,19,0.00
2013-3-29,75.7,67.1,58.0,61.0,57.6,56.0,96,74,53,30.15,30.02,12,4,17,0.00
2013-3-30,83.2,71.0,63.0,64.0,61.3,59.0,94,73,47,30.08,29.85,8,3,19,0.00
2013-3-31,79.2,70.0,65.5,66.0,63.0,57.0,91,79,52,29.93,29.82,10,3,20,0.02
2013-4-1,84.5,71.9,62.2,65.0,61.4,58.0,88,71,46,30.01,29.85,10,2,18,0.00
2013-4-2,74.7,66.4,54.4,67.0,63.2,53.0,98,90,75,29.96,29.72,21,3,51,2.11
2013-4-3,55.5,51.4,48.0,55.0,50.5,47.0,98,97,95,30.12,29.79,15,6,21,0.12
2013-4-4,60.2,51.2,46.3,47.0,43.8,40.0,95,77,57,30.22,30.09,13,5,19,0.00
2013-4-5,71.4,56.2,41.6,50.0,44.3,40.0,93,68,42,30.26,30.05,9,2,11,0.00
2013-4-6,79.0,65.2,50.6,59.0,54.5,48.0,93,70,48,30.06,29.82,13,5,25,0.00
2013-4-7,81.3,68.1,61.3,65.0,61.5,58.0,94,81,55,29.89,29.72,12,5,22,0.00
2013-4-8,74.1,68.7,65.4,67.0,64.4,61.0,94,86,76,29.80,29.63,18,6,21,0.00
2013-4-9,84.9,73.9,68.6,70.0,67.5,65.0,92,81,58,29.67,29.55,20,8,26,0.00
2013-4-10,72.8,56.1,44.2,69.0,52.2,42.0,95,87,70,29.92,29.59,18,8,27,0.19
2013-4-11,67.9,54.3,42.5,43.0,40.4,38.0,88,62,37,29.97,29.80,11,3,21,0.05
2013-4-12,79.5,63.0,52.0,52.0,43.5,41.0,69,52,26,29.99,29.83,11,2,15,0.00
2013-4-13,75.6,65.1,55.0,58.0,52.7,46.0,89,66,36,29.93,29.75,11,2,14,0.00
2013-4-14,85.9,70.5,57.7,68.0,61.8,55.0,95,76,50,29.79,29.57,9,2,16,0.00
2013-4-15,87.2,75.5,68.0,68.0,66.6,65.0,95,75,50,29.76,29.64,16,5,18,0.00
2013-4-16,83.1,74.7,68.2,70.0,67.0,64.0,94,78,62,29.84,29.75,15,6,22,0.00
2013-4-17,81.2,74.4,71.2,72.0,70.1,68.0,97,87,67,29.83,29.62,14,7,23,0.00
2013-4-18,73.2,61.5,49.2,71.0,53.7,38.0,95,77,49,30.08,29.60,16,7,24,0.30
2013-4-19,67.8,56.0,43.6,38.0,30.2,23.0,72,42,19,30.29,30.07,16,6,19,0.00
2013-4-20,70.6,58.6,47.0,47.0,33.6,29.0,71,41,23,30.21,29.98,14,4,20,0.00
2013-4-21,76.4,62.9,49.7,57.0,51.7,46.0,87,69,48,30.13,29.98,10,3,15,0.00
2013-4-22,81.9,69.1,56.7,61.0,58.6,55.0,97,72,48,30.08,29.83,13,4,19,0.00
2013-4-23,76.8,64.4,50.4,66.0,54.9,-99.9,90,78,56,30.08,29.80,15,-6,20,0.00
2013-4-24,62.7,52.7,44.1,42.0,38.2,33.0,85,60,39,30.25,30.09,16,7,23,0.00
2013-4-25,66.8,60.5,54.9,47.0,43.8,41.0,64,55,43,30.31,30.16,8,2,10,0.00
2013-4-26,75.8,67.6,58.4,70.0,63.3,44.0,98,86,51,30.16,29.98,11,3,17,0.03
2013-4-27,82.3,73.0,66.3,69.0,66.8,65.0,95,82,61,30.05,29.88,8,2,14,0.01
2013-4-28,83.7,72.4,62.4,65.0,62.5,58.0,97,74,43,29.99,29.82,10,2,14,0.00
2013-4-29,81.6,70.4,65.0,67.0,64.3,61.0,96,82,55,29.89,29.74,13,3,25,0.00
2013-4-30,81.3,71.4,63.6,66.0,64.1,62.0,96,79,55,29.81,29.68,10,2,13,0.00
2013-5-1,73.2,67.8,65.7,68.0,65.4,64.0,94,92,82,29.80,29.73,8,2,12,0.00
2013-5-2,56.0,48.9,47.1,46.0,34.6,-99.9,77,68,62,30.30,0.00,21,-11,30,0.00
2013-5-3,68.8,55.7,43.0,36.0,30.7,25.0,71,43,20,30.32,30.07,19,6,24,0.00
2013-5-4,83.7,67.4,52.7,43.0,34.3,29.0,51,32,16,30.07,29.85,9,2,15,0.00
2013-5-5,75.8,64.6,50.8,48.0,41.6,34.0,62,44,28,30.11,29.95,11,4,16,0.00
2013-5-6,74.4,65.2,55.7,52.0,46.9,44.0,66,52,41,30.13,29.98,6,1,9,0.00
2013-5-7,83.9,71.8,58.8,56.0,51.7,49.0,73,51,32,30.05,29.89,12,2,17,0.00
2013-5-8,83.1,71.8,62.9,64.0,61.9,57.0,94,73,52,29.97,29.84,12,4,20,0.00
2013-5-9,76.1,69.8,64.9,71.0,66.3,63.0,95,88,77,29.93,29.81,11,4,16,0.03
2013-5-10,85.2,70.4,61.7,66.0,62.9,60.0,97,80,44,30.00,29.77,14,3,33,2.30
2013-5-11,80.4,69.7,60.9,62.0,57.3,49.0,98,69,39,30.11,29.97,14,5,17,0.00
2013-5-12,82.1,70.4,59.9,56.0,50.5,41.0,74,51,32,30.22,30.08,7,2,11,0.00
2013-5-13,83.2,71.9,60.0,59.0,50.2,41.0,71,48,29,30.23,30.11,8,2,16,0.00
2013-5-14,83.7,72.2,61.1,67.0,61.5,57.0,90,71,49,30.18,29.96,15,4,22,0.00
2013-5-15,82.9,73.4,65.6,72.0,68.5,64.0,97,85,65,30.05,29.79,19,5,24,0.12
2013-5-16,91.5,77.4,68.8,73.0,69.8,67.0,97,79,49,29.82,29.66,12,5,22,0.02
2013-5-17,92.5,80.0,73.3,74.0,71.6,69.0,92,77,51,29.84,29.73,15,5,19,0.00
2013-5-18,92.4,79.8,70.4,72.0,68.5,64.0,94,71,44,29.86,29.76,16,6,25,0.00
2013-5-19,90.8,79.2,71.6,72.0,69.4,66.0,90,73,51,29.79,29.67,17,6,23,0.00
2013-5-20,88.3,76.9,71.4,71.0,69.9,66.0,93,80,56,29.79,29.66,16,6,24,0.00
2013-5-21,86.2,78.0,70.7,73.0,70.0,60.0,92,77,62,29.84,29.64,16,6,25,0.00
2013-5-22,90.4,76.8,63.3,73.0,62.7,56.0,85,64,40,29.89,29.76,7,2,12,0.00
2013-5-23,87.4,79.1,73.3,73.0,71.3,70.0,92,78,59,29.99,29.82,12,4,19,0.00
2013-5-24,79.9,72.1,67.5,74.0,69.9,67.0,97,93,78,30.08,29.96,9,2,27,2.28
2013-5-25,79.6,72.6,68.1,72.0,70.0,67.0,98,92,71,30.11,30.00,17,4,20,0.51
2013-5-26,83.4,76.3,70.9,74.0,71.0,68.0,98,84,68,30.05,29.93,11,4,18,0.42
2013-5-27,87.1,77.1,69.5,72.0,69.9,67.0,96,80,59,29.98,29.79,13,5,22,0.00
2013-5-28,87.2,78.3,72.2,72.0,70.1,69.0,92,77,56,29.86,29.72,16,7,27,0.00
2013-5-29,84.3,76.7,71.4,73.0,71.2,70.0,95,84,67,29.83,29.67,20,7,31,0.07
2013-5-30,88.8,79.5,73.7,74.0,72.0,71.0,92,79,60,29.79,29.70,14,5,19,0.01
2013-5-31,90.3,80.7,74.9,75.0,73.1,72.0,92,78,61,29.82,29.69,12,5,19,0.00
2013-6-1,92.5,82.4,74.8,74.0,72.8,72.0,92,74,54,29.84,29.74,13,4,21,0.00
2013-6-2,87.8,77.2,66.8,73.0,65.6,58.0,95,70,37,30.02,29.85,9,2,13,0.23
2013-6-3,91.1,79.1,68.0,66.0,63.2,57.0,83,60,32,29.94,29.79,6,1,11,0.00
2013-6-4,91.0,79.7,69.9,70.0,67.4,63.0,94,68,41,29.86,29.74,12,3,15,0.00
2013-6-5,91.4,79.6,68.6,71.0,67.6,65.0,95,69,43,29.84,29.69,13,3,18,0.00
2013-6-6,95.0,81.5,72.2,72.0,67.9,64.0,89,66,38,29.88,29.71,11,2,19,0.00
2013-6-7,85.6,76.4,68.6,66.0,60.8,54.0,86,61,35,29.95,29.83,7,2,13,0.00
2013-6-8,87.2,78.5,68.1,71.0,63.5,56.0,81,61,50,29.90,29.74,9,2,16,0.00
2013-6-9,87.4,79.5,68.2,73.0,70.8,66.0,93,76,54,29.93,29.79,12,2,21,0.05
2013-6-10,93.2,82.1,70.3,73.0,70.1,67.0,97,70,44,29.94,29.85,11,2,14,0.00
2013-6-11,91.0,80.4,73.6,73.0,71.0,68.0,94,74,49,29.98,29.90,11,3,18,0.00
2013-6-12,92.9,81.2,73.1,74.0,71.7,69.0,94,75,50,30.01,29.90,10,3,17,0.00
2013-6-13,92.9,80.1,74.9,74.0,71.8,66.0,94,77,50,30.01,29.89,9,2,19,0.01
2013-6-14,87.9,80.6,74.0,75.0,72.9,71.0,93,78,63,29.95,29.85,7,1,12,0.00
2013-6-15,87.6,81.2,75.9,75.0,73.7,73.0,94,79,62,29.95,29.84,7,1,11,0.00
2013-6-16,94.0,83.6,74.1,74.0,71.3,67.0,93,69,42,29.97,29.83,9,2,17,0.01
2013-6-17,94.4,84.1,75.4,74.0,71.3,67.0,91,68,43,29.95,29.79,13,2,20,0.00
2013-6-18,92.1,81.5,69.0,74.0,70.4,66.0,96,71,45,29.96,29.82,11,2,15,0.48
2013-6-19,94.0,83.8,74.2,73.0,70.3,65.0,94,66,42,29.92,29.83,11,3,17,0.00
2013-6-20,94.5,83.1,73.0,73.0,69.6,64.0,95,67,38,30.00,29.89,14,4,17,0.00
2013-6-21,94.3,83.7,75.1,73.0,69.0,62.0,93,65,36,30.02,29.90,13,4,19,0.00
2013-6-22,94.8,83.8,74.9,73.0,69.1,64.0,91,64,37,29.99,29.83,16,4,21,0.00
2013-6-23,93.6,83.1,75.2,73.0,68.2,59.0,91,64,36,29.93,29.83,12,4,21,0.00
2013-6-24,95.8,83.7,74.2,74.0,70.4,66.0,94,67,38,29.98,29.84,14,5,20,0.00
2013-6-25,95.8,84.4,75.5,74.0,69.2,64.0,92,64,35,29.94,29.80,18,5,23,0.00
2013-6-26,97.4,85.2,75.5,73.0,70.3,66.0,88,64,36,29.92,29.81,13,5,20,0.00
2013-6-27,99.0,85.2,74.5,73.0,67.1,57.0,89,60,25,29.98,29.84,7,2,16,0.00
2013-6-28,103.2,88.5,73.9,74.0,67.3,62.0,91,55,28,29.94,29.75,7,2,13,0.00
2013-6-29,103.9,91.8,80.3,70.0,63.5,58.0,59,41,22,29.80,29.68,8,2,13,0.00
2013-6-30,92.2,82.6,70.9,69.0,65.6,59.0,88,59,36,29.89,29.75,10,3,14,0.14
2013-7-1,87.6,80.3,72.3,67.0,56.4,52.0,63,45,30,29.96,29.85,11,3,21,0.00
2013-7-2,91.1,80.2,69.7,60.0,54.1,48.0,63,43,23,30.03,29.91,9,3,14,0.00
2013-7-3,93.2,81.4,71.5,61.0,52.9,48.0,59,39,21,29.99,29.85,9,2,13,0.00
2013-7-4,91.9,81.1,69.9,68.0,60.7,53.0,89,54,27,29.95,29.83,9,1,11,0.00
2013-7-5,95.2,84.1,71.6,71.0,63.0,58.0,89,53,29,29.94,29.77,11,3,18,0.00
2013-7-6,94.8,82.1,73.0,72.0,67.1,60.0,89,64,32,29.88,29.76,9,2,21,0.00
2013-7-7,95.9,82.5,73.9,75.0,71.2,66.0,91,71,39,29.93,29.81,13,2,25,0.04
2013-7-8,87.4,79.3,74.4,75.0,72.4,68.0,95,80,53,30.06,29.92,9,2,15,0.02
2013-7-9,96.1,84.4,74.2,74.0,71.0,67.0,94,67,39,30.10,29.94,10,3,18,0.00
2013-7-10,97.9,85.3,73.9,74.0,70.4,66.0,94,64,37,30.04,29.86,11,2,18,0.00
2013-7-11,96.7,85.2,74.2,75.0,68.5,61.0,90,61,31,29.95,29.81,8,2,15,0.00
2013-7-12,98.7,85.7,74.2,72.0,67.0,57.0,87,57,27,29.91,29.80,7,2,14,0.00
2013-7-13,101.4,88.9,75.8,69.0,64.2,58.0,74,47,26,29.92,29.77,9,1,12,0.00
2013-7-14,93.9,82.7,76.4,70.0,66.4,62.0,77,59,39,29.86,29.80,7,2,15,0.00
2013-7-15,76.3,72.1,69.7,74.0,70.2,68.0,98,94,77,29.99,29.84,5,1,9,0.64
2013-7-16,90.8,77.4,70.3,75.0,70.2,66.0,98,81,48,30.09,29.98,8,1,17,0.00
2013-7-17,87.4,75.1,71.5,75.0,71.5,70.0,98,89,58,30.13,30.05,8,1,28,0.98
2013-7-18,93.1,78.3,71.3,74.0,70.6,68.0,98,79,44,30.13,29.95,5,1,21,0.00
2013-7-19,93.9,81.3,72.4,72.0,69.2,63.0,96,70,37,30.03,29.85,7,1,16,0.00
2013-7-20,92.2,80.4,72.5,73.0,70.6,67.0,94,74,44,29.95,29.81,10,2,16,0.00
2013-7-21,91.5,80.8,73.1,75.0,73.3,71.0,96,79,53,29.91,29.83,12,3,19,0.00
2013-7-22,93.7,83.5,76.1,75.0,73.2,69.0,94,73,45,29.94,29.84,9,4,20,0.00
2013-7-23,94.8,83.9,75.8,75.0,71.5,66.0,91,69,40,29.96,29.81,10,3,18,0.00
2013-7-24,80.9,77.0,74.6,75.0,73.1,72.0,92,88,81,29.92,29.86,9,2,16,0.00
2013-7-29,95.6,86.9,79.4,72.0,67.9,64.0,78,55,35,29.99,29.90,14,5,20,0.00
2013-7-30,97.0,84.7,75.1,74.0,70.7,64.0,92,66,35,30.06,29.93,11,3,16,0.00
2013-7-31,98.5,85.5,73.5,73.0,67.4,57.0,94,60,27,30.06,29.89,7,1,17,0.00
2013-8-1,100.3,87.8,75.1,72.0,68.4,65.0,85,55,32,29.99,29.85,9,1,11,0.00
2013-8-2,98.1,86.8,75.5,71.0,67.3,64.0,77,54,33,29.94,29.83,8,2,17,0.00
2013-8-3,97.6,85.7,75.6,74.0,69.7,63.0,90,62,33,29.99,29.89,10,3,19,0.00
2013-8-4,97.5,85.9,75.5,76.0,71.8,68.0,93,66,39,30.05,29.89,9,3,16,0.00
2013-8-5,99.4,85.8,73.0,74.0,69.3,63.0,92,61,32,30.00,29.83,12,3,19,0.00
2013-8-6,100.2,86.5,74.3,74.0,70.2,64.0,90,62,31,29.92,29.76,12,3,19,0.00
2013-8-7,100.6,87.1,76.2,75.0,69.9,59.0,88,61,26,29.89,29.74,15,3,18,0.00
2013-8-8,100.6,86.2,75.5,73.0,68.8,56.0,87,61,23,29.86,29.74,10,3,18,0.00
2013-8-9,99.0,85.7,73.1,73.0,66.3,55.0,95,59,23,29.93,29.82,7,2,15,0.00
2013-8-10,100.6,86.7,77.5,72.0,69.8,65.0,79,60,31,30.01,29.88,11,2,28,0.00
2013-8-11,98.1,83.5,75.6,74.0,71.1,67.0,90,69,36,30.05,29.92,7,1,22,0.00
2013-8-12,95.7,84.1,72.7,73.0,69.6,66.0,94,65,39,30.04,29.90,9,1,14,0.00
2013-8-13,98.7,87.0,75.7,74.0,68.7,63.0,91,59,32,30.00,29.84,9,2,14,0.00
2013-8-14,99.8,84.0,76.3,73.0,70.2,66.0,86,65,34,29.97,29.84,14,2,16,0.00
2013-8-15,93.5,80.4,72.3,74.0,71.8,70.0,95,77,48,29.99,29.87,14,2,18,0.82
2013-8-16,92.4,80.3,71.6,75.0,69.2,60.0,97,72,36,30.02,29.88,10,2,13,0.00
2013-8-17,92.3,81.3,71.3,69.0,64.7,58.0,89,60,33,30.02,29.90,8,2,14,0.00
2013-8-18,95.3,82.8,71.7,69.0,60.4,56.0,69,48,29,30.03,29.94,5,1,8,0.00
2013-8-19,93.5,83.1,71.9,66.0,63.0,58.0,77,53,34,30.03,29.89,10,1,17,0.00
2013-8-20,93.6,81.5,73.1,70.0,66.7,59.0,86,63,33,30.00,29.90,12,2,16,0.00
2013-8-21,93.1,81.5,73.0,74.0,69.9,66.0,91,70,43,30.06,29.93,10,2,16,0.00
2013-8-22,93.7,83.8,74.4,74.0,70.3,67.0,89,66,43,30.06,29.88,6,1,15,0.00
2013-8-23,95.6,84.7,74.3,74.0,69.5,65.0,90,63,38,29.99,29.85,6,1,12,0.00
2013-8-24,97.3,86.6,77.9,72.0,69.3,66.0,77,58,36,30.01,29.89,5,1,13,0.00
2013-8-25,92.3,84.0,76.8,72.0,69.9,67.0,79,64,46,30.05,29.97,9,2,15,0.00
2013-8-26,88.5,78.6,71.8,72.0,70.9,69.0,96,78,53,30.10,29.99,8,2,15,0.03
2013-8-27,85.0,76.5,71.3,74.0,69.9,62.0,97,82,49,30.10,30.01,14,3,16,0.00
2013-8-28,93.4,82.3,73.2,74.0,70.0,66.0,95,70,41,30.09,29.97,8,1,14,0.00
2013-8-29,98.7,86.5,75.4,72.0,67.4,62.0,84,56,32,30.06,29.91,5,1,10,0.00
2013-8-30,101.2,88.1,76.9,68.0,65.3,61.0,71,49,28,29.99,29.83,6,1,12,0.00
2013-8-31,99.2,86.6,74.5,72.0,68.4,65.0,82,57,33,29.90,29.77,10,2,17,0.00
2013-9-1,97.8,85.8,73.6,73.0,68.6,65.0,88,59,36,29.88,29.77,8,2,13,0.00
2013-9-2,99.4,86.0,74.5,74.0,69.2,63.0,91,61,30,29.94,29.78,8,2,11,0.00
2013-9-3,100.5,86.8,75.2,70.0,67.0,62.0,79,54,29,29.96,29.83,5,1,13,0.00
2013-9-4,98.5,84.5,71.9,74.0,69.5,64.0,93,64,36,30.00,29.88,10,2,14,0.09
2013-9-5,95.5,82.7,73.9,73.0,69.3,67.0,87,66,40,30.07,29.95,7,1,20,0.00
2013-9-6,94.6,83.8,74.8,73.0,70.3,66.0,87,66,39,30.06,29.91,6,1,14,0.00
2013-9-7,95.8,80.3,74.1,74.0,71.1,66.0,92,76,39,30.00,29.86,14,2,29,0.10
2013-9-8,88.4,78.5,72.4,74.0,71.3,68.0,95,80,52,29.97,29.85,7,1,14,0.00
2013-9-9,89.1,76.9,71.6,74.0,70.6,68.0,94,82,51,29.97,29.88,17,1,24,0.05
2013-9-10,90.2,77.7,71.8,74.0,71.0,68.0,97,81,51,30.04,29.95,15,2,22,0.00
2013-9-11,91.7,81.6,73.8,73.0,69.5,62.0,93,70,39,30.07,29.95,9,2,13,0.00
2013-9-12,93.7,82.1,72.6,72.0,68.6,64.0,92,66,38,30.04,29.88,7,1,12,0.00
2013-9-13,95.2,84.3,74.9,71.0,65.7,61.0,83,57,33,29.94,29.77,10,2,16,0.00
2013-9-14,93.1,83.4,75.5,71.0,66.0,60.0,76,57,38,29.91,29.80,10,2,15,0.08
2013-9-15,91.6,81.8,73.9,74.0,70.2,66.0,90,70,45,29.99,29.88,6,1,11,0.00
2013-9-16,89.9,80.2,75.1,75.0,72.2,70.0,91,77,52,30.02,29.92,8,1,14,0.09
2013-9-17,90.0,79.9,73.9,76.0,72.2,70.0,94,78,52,30.03,29.90,5,1,18,0.01
2013-9-18,92.7,81.7,74.2,74.0,70.5,66.0,93,71,41,29.99,29.84,8,2,16,0.00
2013-9-19,90.0,80.1,75.5,79.0,73.3,71.0,91,80,58,29.92,29.77,7,2,15,0.23
2013-9-20,78.1,73.5,69.8,77.0,72.2,69.0,98,95,89,29.84,29.75,14,4,24,3.24
2013-9-21,82.5,73.1,66.4,69.0,60.5,50.0,96,69,34,29.92,29.82,14,6,18,0.01
2013-9-22,84.3,72.2,60.8,56.0,51.7,47.0,75,51,28,29.90,29.77,10,2,12,0.00
2013-9-23,87.6,75.9,63.6,58.0,52.9,50.0,74,47,27,29.83,29.73,5,1,8,0.00
2013-9-24,94.1,81.6,69.2,64.0,58.7,55.0,65,47,30,29.90,29.80,10,2,12,0.00
2013-9-25,93.5,82.7,73.8,65.0,60.7,58.0,66,49,33,29.87,29.74,10,1,11,0.00
2013-9-26,90.1,79.8,69.9,73.0,64.0,56.0,85,60,38,29.87,29.78,11,2,17,0.00
2013-9-27,87.9,79.2,74.9,76.0,74.1,73.0,94,85,64,29.89,29.79,15,4,19,0.04
2013-9-28,90.2,79.2,74.0,76.0,74.4,72.0,96,86,58,29.95,29.84,12,3,21,0.48
2013-9-29,74.1,68.9,64.3,72.0,66.6,64.0,98,92,77,30.04,29.92,9,4,17,2.44
2013-9-30,88.9,74.9,62.9,65.0,59.9,55.0,93,64,33,29.94,29.79,4,1,8,0.00
2013-10-1,88.2,76.7,68.2,73.0,68.1,57.0,98,77,52,29.91,29.80,8,2,13,0.00
2013-10-2,89.0,79.3,72.8,75.0,72.2,70.0,96,80,54,29.93,29.82,9,3,15,0.00
2013-10-3,89.2,80.3,74.5,73.0,71.7,69.0,95,76,52,29.91,29.79,16,3,17,0.00
2013-10-4,88.9,78.9,71.7,72.0,70.8,69.0,96,78,54,29.89,29.80,12,4,21,0.00
2013-10-5,88.1,74.5,61.7,72.0,64.1,42.0,97,72,48,30.04,29.84,12,3,20,0.00
2013-10-6,79.6,65.9,53.7,54.0,45.4,36.0,94,55,22,30.14,30.02,16,4,17,0.27
2013-10-7,83.8,70.7,55.7,57.0,41.9,35.0,63,37,20,30.17,30.04,8,2,11,0.00
2013-10-8,82.8,72.0,61.1,51.0,47.4,43.0,55,43,30,30.09,29.97,6,1,12,0.00
2013-10-9,81.4,70.3,59.3,62.0,57.5,49.0,88,66,44,30.06,29.94,12,2,16,0.00
2013-10-10,84.0,72.6,62.8,68.0,63.7,61.0,95,75,51,30.03,29.87,11,3,18,0.00
2013-10-11,86.3,76.3,69.3,74.0,71.0,66.0,93,84,64,29.93,29.81,9,3,14,0.01
2013-10-12,89.8,79.1,70.4,76.0,73.1,69.0,95,83,56,30.03,29.88,12,2,25,2.79
2013-10-13,72.2,69.3,65.5,72.0,68.5,65.0,98,97,94,30.14,29.99,15,2,22,6.46
2013-10-14,78.1,72.4,70.3,74.0,71.0,70.0,99,95,86,30.09,29.91,7,2,17,0.31
2013-10-15,83.8,72.9,58.9,72.0,68.4,56.0,98,86,62,29.99,29.86,10,3,19,0.01
2013-10-16,59.5,56.5,53.2,58.0,55.2,52.0,97,95,92,30.08,29.95,14,5,17,0.77
2013-10-17,74.7,61.7,52.2,56.0,50.2,45.0,93,69,40,30.15,29.98,9,2,10,0.00
2013-10-18,70.5,64.3,59.2,64.0,57.9,52.0,90,80,72,30.01,29.88,5,1,9,0.00
2013-10-19,67.9,57.4,47.8,63.0,44.9,37.0,93,66,37,30.20,30.00,15,5,20,0.01
2013-10-20,72.2,60.3,50.2,51.0,45.4,41.0,73,59,41,30.11,29.92,10,2,14,0.00
2013-10-21,77.5,66.4,59.8,68.0,61.2,51.0,93,84,68,30.06,29.90,8,2,14,0.04
2013-10-22,75.5,64.0,52.7,56.0,45.5,38.0,88,56,27,30.16,30.06,11,4,16,0.00
2013-10-23,80.7,68.2,57.2,50.0,44.0,40.0,58,43,25,30.17,30.08,7,2,12,0.00
2013-10-24,80.0,70.8,62.6,52.0,48.8,46.0,61,47,30,30.22,30.11,7,1,10,0.00
2013-10-25,77.6,68.6,60.2,62.0,58.0,51.0,85,69,56,30.31,30.19,10,2,14,0.00
2013-10-26,78.3,68.3,61.0,65.0,62.2,59.0,93,82,60,30.22,30.05,12,2,17,0.00
2013-10-27,75.8,67.0,62.9,65.0,63.5,61.0,96,89,67,30.10,30.00,6,1,18,0.26
2013-10-28,78.9,70.5,64.4,69.0,66.4,63.0,98,87,71,30.08,29.96,14,4,22,0.01
2013-10-29,81.8,73.7,68.7,71.0,68.6,67.0,95,84,66,30.06,29.95,12,4,19,0.00
2013-10-30,81.8,75.2,71.5,75.0,72.4,69.0,98,91,77,30.02,29.78,9,3,18,1.38
2013-10-31,79.6,71.9,66.3,72.0,55.2,37.0,98,64,22,29.88,29.72,14,3,24,3.34
2013-11-1,83.3,69.5,59.7,58.0,45.6,37.0,68,44,20,30.08,29.82,11,3,18,0.00
2013-11-2,72.3,63.1,55.1,46.0,39.8,32.0,60,45,24,30.29,30.08,10,4,18,0.00
2013-11-3,67.6,59.4,50.5,53.0,41.8,37.0,81,54,34,30.23,30.02,10,2,15,0.00
2013-11-4,64.8,61.3,57.8,63.0,58.8,53.0,96,91,82,30.07,29.97,11,2,15,0.02
2013-11-5,78.0,69.2,64.0,69.0,66.7,63.0,98,92,70,30.02,29.90,10,3,15,0.03
2013-11-6,70.1,60.4,51.1,69.0,55.6,43.0,97,84,66,30.34,29.98,13,4,22,0.22
2013-11-7,62.0,53.1,43.2,43.0,39.3,34.0,83,62,37,30.48,30.34,12,4,18,0.00
2013-11-8,63.2,56.6,51.0,46.0,41.5,38.0,72,58,39,30.41,30.18,9,1,15,0.00
2013-11-9,68.5,60.1,52.6,58.0,53.2,45.0,90,78,68,30.20,30.12,7,1,12,0.01
2013-11-10,67.5,62.7,59.0,58.0,56.9,55.0,92,81,69,30.31,30.18,5,0,6,0.00
2013-11-11,77.2,64.3,55.9,56.0,53.9,51.0,86,70,48,30.28,30.16,4,1,6,0.00
2013-11-12,60.6,53.5,42.7,55.0,44.7,25.0,92,74,47,30.64,30.25,16,6,24,0.00
2013-11-13,55.9,43.8,33.7,30.0,26.4,23.0,73,52,29,30.68,30.43,9,3,12,0.00
2013-11-14,60.4,49.7,39.4,50.0,35.2,26.0,83,59,38,30.43,30.06,10,2,12,0.00
2013-11-15,76.1,63.0,51.1,60.0,55.5,50.0,95,78,55,30.06,29.87,10,2,15,0.00
2013-11-16,79.4,70.7,61.2,70.0,66.2,59.0,97,86,70,29.90,29.73,16,4,21,0.00
2013-11-17,88.0,77.3,70.9,72.0,67.2,57.0,96,74,35,29.93,29.75,5,2,13,0.00
2013-11-18,76.2,67.8,59.0,68.0,59.0,51.0,88,74,58,30.10,29.92,9,2,14,0.00
2013-11-19,71.2,62.8,56.7,54.0,47.2,43.0,82,58,39,30.14,29.99,9,2,13,0.00
2013-11-20,70.1,62.3,57.0,65.0,56.6,49.0,97,82,72,30.02,29.89,11,3,13,0.03
2013-11-21,78.5,72.5,65.6,72.0,69.9,65.0,98,91,79,30.04,29.92,7,2,17,0.04
2013-11-22,72.1,41.7,34.6,71.0,40.6,33.0,96,95,84,30.41,30.03,17,8,25,0.42
2013-11-23,40.9,37.5,34.8,39.0,36.2,34.0,97,95,91,30.50,30.39,15,8,22,0.05
2013-11-24,41.3,37.3,33.5,38.0,33.8,30.0,95,87,71,30.53,30.35,14,6,21,0.20
2013-11-25,38.6,36.2,33.3,38.0,35.1,32.0,97,96,91,30.37,30.12,10,4,20,0.77
2013-11-26,50.8,42.0,37.3,38.0,34.2,29.0,91,75,53,30.38,30.16,15,7,25,0.00
2013-11-27,50.4,41.7,33.2,30.0,24.9,20.0,76,53,32,30.52,30.38,10,4,18,0.00
2013-11-28,54.9,44.3,35.9,30.0,26.0,24.0,68,51,32,30.49,30.37,5,1,11,0.00
2013-11-29,60.3,50.4,40.4,50.0,42.7,27.0,93,76,49,30.53,30.37,8,1,11,0.00
2013-11-30,64.0,56.3,49.7,57.0,50.9,45.0,90,82,74,30.39,30.20,5,1,10,0.00
2013-12-1,70.1,62.5,54.3,61.0,57.8,53.0,97,85,71,30.21,29.92,6,1,13,0.00
2013-12-2,80.2,67.6,58.5,60.0,54.4,46.0,89,66,31,29.92,29.66,8,2,13,0.00
2013-12-3,83.8,71.1,62.3,58.0,50.9,40.0,78,53,22,29.70,29.58,7,2,14,0.00
2013-12-4,72.5,65.0,55.6,66.0,60.3,52.0,97,85,59,29.79,29.65,5,2,13,0.00
2013-12-5,66.5,44.2,31.9,66.0,39.2,26.0,98,82,67,30.11,29.77,14,6,21,0.01
2013-12-6,33.9,31.4,27.7,32.0,28.4,23.0,95,88,81,30.48,30.07,15,8,25,0.02
2013-12-7,29.1,26.8,24.6,25.0,22.5,20.0,92,84,79,30.52,30.34,13,6,20,0.00
2013-12-8,47.0,35.4,26.5,40.0,32.1,25.0,94,88,74,30.34,30.07,5,1,7,0.00
2013-12-9,38.1,36.3,33.2,37.0,35.3,31.0,97,96,92,30.42,30.10,17,4,17,0.08
2013-12-10,45.8,35.5,27.5,31.0,24.6,21.0,92,67,40,30.56,30.39,11,4,17,0.00
2013-12-11,57.8,43.4,32.5,33.0,29.4,25.0,76,60,34,30.58,30.37,6,1,10,0.00
2013-12-12,53.8,42.4,33.1,35.0,32.3,29.0,83,69,47,30.63,30.36,8,2,11,0.00
2013-12-13,51.5,45.4,42.4,51.0,41.7,35.0,98,87,73,30.34,29.92,8,1,14,0.11
2013-12-14,50.3,46.1,39.7,50.0,40.9,32.0,98,82,71,30.36,29.90,17,5,22,0.01
2013-12-15,61.1,47.1,35.6,34.0,31.7,29.0,79,58,33,30.44,30.31,7,2,11,0.00
2013-12-16,67.5,53.8,44.4,42.0,34.8,32.0,68,50,32,30.33,30.21,6,1,14,0.00
2013-12-17,72.5,57.8,45.9,42.0,39.1,33.0,76,52,29,30.34,30.23,6,1,7,0.00
2013-12-18,68.3,58.6,51.5,55.0,50.0,40.0,94,74,55,30.29,30.06,8,2,17,0.00
2013-12-19,74.9,63.5,52.8,63.0,58.3,50.0,94,84,63,30.06,29.79,14,4,25,0.00
2013-12-20,71.7,67.5,63.7,68.0,64.6,62.0,95,91,81,29.83,29.62,14,5,26,0.00
2013-12-21,70.9,54.4,44.0,68.0,48.3,39.0,97,82,46,29.85,29.57,13,4,19,0.38
2013-12-22,56.1,48.0,37.7,42.0,36.6,30.0,93,66,51,30.39,29.85,13,4,21,0.00
2013-12-23,56.0,42.0,31.1,33.0,29.8,27.0,86,65,36,30.57,30.40,8,2,12,0.00
2013-12-24,57.6,45.3,36.3,38.0,30.7,23.0,86,60,28,30.57,30.30,9,2,16,0.00
2013-12-25,56.7,47.4,40.6,47.0,42.8,38.0,96,84,70,30.42,30.27,6,1,12,0.00
2013-12-26,54.2,46.2,37.4,42.0,38.3,34.0,89,74,59,30.46,30.35,8,2,13,0.00
2013-12-27,56.2,50.0,44.4,42.0,41.1,39.0,91,73,54,30.47,30.34,3,0,6,0.00
2013-12-28,60.6,51.0,43.4,46.0,41.6,35.0,89,72,47,30.34,30.03,8,1,13,0.00
2013-12-29,64.4,48.9,33.6,52.0,44.1,30.0,94,84,64,30.29,29.99,14,4,20,0.00
2013-12-30,41.4,36.9,33.0,31.0,28.0,25.0,88,71,58,30.45,30.26,12,3,18,0.00
2013-12-31,53.7,42.1,36.0,32.0,29.9,27.0,83,64,39,30.50,30.28,6,1,10,0.00
2014-1-1,64.9,51.0,36.8,55.0,43.9,31.0,92,77,65,30.28,30.03,10,2,16,0.00
2014-1-2,51.8,42.7,33.5,50.0,28.0,23.0,92,58,36,30.49,30.13,22,6,25,0.00